Broad Arrow, Australia
Current Conditions -  °F | °C
As of 4:30 PM on Saturday 29 Nov 2014 (Local Time) from YPKG Reporting Station
Scattered Clouds Scattered Clouds  
Wind Chill: 82°   Ceiling: Unl
Heat Index: 82°   Visibility: 6mi
Dew Point: 46°   Wind: 10mph
Humidity: 28%   Direction: 160°SSE
Pressure: 29.83"   Gusts: NA
Location:  30.44°S, 121.31°E
Report Text: YPKG 290830Z AUTO 16009KT 9999 // SCT071 28/08 Q1010
Loading
Personal Weather Stations






























Interactive Weather Map New forecast layout! Learn more

10-Day Weather Forecast

Advertisements
Track Severe Weather on mobile